createdAt,value
2023-06-02T00:00:43.744Z,4.20
2023-06-02T00:03:35.204Z,4.20
2023-06-02T00:06:09.953Z,4.70
2023-06-02T00:08:40.069Z,4.60
2023-06-02T00:11:10.072Z,4.80
2023-06-02T00:13:39.025Z,4.50
2023-06-02T00:16:08.232Z,4.40
2023-06-02T00:18:39.170Z,5.00
2023-06-02T00:21:10.409Z,4.90
2023-06-02T00:23:38.460Z,3.70
2023-06-02T00:26:06.799Z,4.30
2023-06-02T00:28:35.114Z,3.90
2023-06-02T00:31:03.369Z,4.40
2023-06-02T00:33:31.679Z,4.70
2023-06-02T00:35:59.954Z,4.40
2023-06-02T00:38:28.488Z,4.30
2023-06-02T00:40:56.670Z,4.30
2023-06-02T00:43:24.961Z,4.00
2023-06-02T00:45:53.063Z,4.20
2023-06-02T00:48:21.835Z,4.10
2023-06-02T00:50:50.295Z,3.70
2023-06-02T00:53:18.476Z,4.30
2023-06-02T00:55:48.096Z,4.40
2023-06-02T00:58:17.802Z,3.90
2023-06-02T01:00:48.594Z,4.10
2023-06-02T01:03:17.141Z,3.70
2023-06-02T01:05:49.007Z,3.70
2023-06-02T01:08:17.677Z,3.80
2023-06-02T01:10:46.382Z,3.70
2023-06-02T01:13:15.580Z,3.60
2023-06-02T01:15:47.518Z,3.60
2023-06-02T01:18:18.380Z,3.80
2023-06-02T01:20:53.110Z,3.60
2023-06-02T01:23:30.368Z,3.20
2023-06-02T01:25:59.208Z,4.00
2023-06-02T01:28:28.127Z,3.80
2023-06-02T01:31:08.973Z,3.10
2023-06-02T01:33:47.387Z,3.50
2023-06-02T01:36:21.792Z,3.80
2023-06-02T01:38:52.478Z,2.90
2023-06-02T01:41:21.893Z,3.30
2023-06-02T01:43:51.064Z,3.60
2023-06-02T01:46:19.952Z,3.50
2023-06-02T01:48:48.137Z,3.40
2023-06-02T01:51:16.398Z,4.00
2023-06-02T01:53:45.086Z,3.20
2023-06-02T01:56:13.248Z,3.90
2023-06-02T01:58:42.171Z,4.00
2023-06-02T02:01:10.251Z,3.60
2023-06-02T02:03:40.032Z,3.60
2023-06-02T02:06:08.218Z,3.70
2023-06-02T02:08:36.820Z,4.00
2023-06-02T02:11:04.996Z,3.70
2023-06-02T02:13:33.583Z,3.60
2023-06-02T02:16:01.823Z,3.60
2023-06-02T02:18:30.449Z,3.50
2023-06-02T02:20:59.237Z,3.60
2023-06-02T02:23:27.733Z,3.60
2023-06-02T02:25:56.012Z,3.20
2023-06-02T02:28:24.311Z,3.80
2023-06-02T02:30:53.284Z,3.80
2023-06-02T02:33:21.661Z,3.80
2023-06-02T02:35:49.960Z,3.70
2023-06-02T02:38:17.991Z,3.60
2023-06-02T02:40:46.457Z,3.70
2023-06-02T02:43:16.830Z,3.60
2023-06-02T02:45:46.048Z,3.20
2023-06-02T02:48:14.417Z,3.60
2023-06-02T02:50:43.544Z,3.30
2023-06-02T02:53:13.341Z,3.20
2023-06-02T02:55:42.060Z,2.80
2023-06-02T02:58:10.284Z,3.40
2023-06-02T03:00:38.896Z,3.00
2023-06-02T03:03:07.375Z,3.20
2023-06-02T03:05:36.212Z,3.40
2023-06-02T03:08:06.349Z,3.20
2023-06-02T03:10:35.199Z,3.80
2023-06-02T03:13:03.888Z,3.60
2023-06-02T03:15:31.905Z,3.50
2023-06-02T03:18:01.464Z,3.40
2023-06-02T03:20:30.989Z,3.40
2023-06-02T03:22:59.262Z,4.00
2023-06-02T03:25:27.766Z,3.50
2023-06-02T03:27:56.251Z,3.90
2023-06-02T03:30:25.201Z,3.50
2023-06-02T03:32:57.104Z,3.40
2023-06-02T03:35:25.379Z,4.10
2023-06-02T03:37:53.864Z,4.10
2023-06-02T03:40:22.345Z,3.80
2023-06-02T03:42:50.843Z,4.00
2023-06-02T03:45:19.110Z,3.70
2023-06-02T03:47:47.414Z,3.90
2023-06-02T03:50:17.214Z,3.60
2023-06-02T03:52:45.798Z,3.10
2023-06-02T03:55:15.108Z,3.80
2023-06-02T03:57:44.605Z,3.10
2023-06-02T04:00:13.717Z,3.40
2023-06-02T04:02:48.515Z,3.60
2023-06-02T04:05:18.049Z,3.80
2023-06-02T04:07:48.070Z,4.00
2023-06-02T04:10:16.676Z,3.20
2023-06-02T04:12:44.945Z,3.40
2023-06-02T04:15:14.352Z,3.80
2023-06-02T04:17:42.792Z,4.10
2023-06-02T04:20:13.559Z,4.00
2023-06-02T04:22:43.387Z,3.80
2023-06-02T04:25:11.771Z,3.90
2023-06-02T04:27:40.256Z,4.30
2023-06-02T04:30:09.772Z,3.90
2023-06-02T04:32:38.767Z,4.20
2023-06-02T04:35:08.219Z,3.90
2023-06-02T04:37:37.583Z,4.40
2023-06-02T04:40:08.057Z,3.90
2023-06-02T04:42:39.560Z,4.00
2023-06-02T04:45:17.621Z,4.60
2023-06-02T04:47:48.693Z,4.00
2023-06-02T04:50:17.018Z,4.90
2023-06-02T04:52:47.190Z,4.30
2023-06-02T04:55:17.339Z,4.00
2023-06-02T04:57:49.036Z,4.00
2023-06-02T05:00:18.814Z,4.20
2023-06-02T05:02:47.289Z,4.10
2023-06-02T05:05:16.644Z,4.60
2023-06-02T05:07:44.939Z,3.90
2023-06-02T05:10:15.421Z,4.10
2023-06-02T05:12:45.138Z,4.30
2023-06-02T05:15:13.427Z,4.60
2023-06-02T05:17:42.763Z,4.20
2023-06-02T05:20:12.655Z,4.20
2023-06-02T05:22:40.941Z,4.10
2023-06-02T05:25:11.705Z,4.50
2023-06-02T05:27:41.768Z,4.20
2023-06-02T05:30:11.897Z,4.10
2023-06-02T05:32:41.883Z,4.40
2023-06-02T05:35:12.032Z,4.40
2023-06-02T05:37:44.535Z,4.30
2023-06-02T05:40:15.323Z,4.10
2023-06-02T05:42:44.559Z,4.20
2023-06-02T05:45:14.370Z,4.20
2023-06-02T05:47:45.737Z,4.20
2023-06-02T05:50:14.614Z,4.30
2023-06-02T05:52:42.826Z,3.80
2023-06-02T05:55:12.009Z,4.10
2023-06-02T05:57:40.177Z,3.80
2023-06-02T06:00:11.474Z,4.30
2023-06-02T06:02:42.878Z,4.40
2023-06-02T06:05:14.549Z,4.10
2023-06-02T06:07:43.843Z,4.30
2023-06-02T06:10:13.153Z,4.30
2023-06-02T06:12:42.043Z,4.30
2023-06-02T06:15:10.902Z,4.20
2023-06-02T06:18:05.793Z,4.30
2023-06-02T06:20:34.216Z,4.00
2023-06-02T06:23:03.073Z,4.00
2023-06-02T06:25:31.526Z,4.40
2023-06-02T06:28:00.188Z,4.10
2023-06-02T06:30:30.404Z,3.60
2023-06-02T06:33:01.838Z,3.50
2023-06-02T06:35:31.448Z,3.40
2023-06-02T06:38:03.132Z,3.30
2023-06-02T06:40:35.203Z,4.00
2023-06-02T06:43:15.027Z,3.40
2023-06-02T06:46:16.897Z,4.10
2023-06-02T06:48:46.280Z,4.40
2023-06-02T06:51:15.307Z,3.70
2023-06-02T06:53:43.773Z,3.90
2023-06-02T06:56:12.149Z,3.70
2023-06-02T06:58:40.746Z,3.80
2023-06-02T07:01:08.927Z,3.90
2023-06-02T07:03:37.443Z,4.30
2023-06-02T07:06:06.279Z,4.00
2023-06-02T07:08:36.786Z,3.70
2023-06-02T07:11:05.029Z,4.30
2023-06-02T07:13:33.498Z,4.10
2023-06-02T07:16:02.025Z,4.00
2023-06-02T07:18:30.302Z,3.50
2023-06-02T07:20:58.364Z,3.90
2023-06-02T07:23:26.386Z,3.70
2023-06-02T07:25:54.709Z,3.50
2023-06-02T07:28:38.272Z,3.30
2023-06-02T07:31:10.879Z,4.20
2023-06-02T07:33:39.907Z,3.30
2023-06-02T07:36:08.293Z,4.00
2023-06-02T07:38:36.362Z,3.70
2023-06-02T07:41:04.783Z,3.80
2023-06-02T07:43:33.123Z,3.80
2023-06-02T07:46:01.529Z,4.30
2023-06-02T07:48:29.854Z,3.90
2023-06-02T07:50:57.888Z,4.20
2023-06-02T07:53:26.732Z,4.40
2023-06-02T07:55:54.988Z,4.70
2023-06-02T07:58:23.742Z,4.40
2023-06-02T08:00:51.992Z,3.80
2023-06-02T08:03:20.357Z,3.90
2023-06-02T08:05:48.819Z,4.20
2023-06-02T08:08:17.056Z,4.20
2023-06-02T08:10:45.148Z,4.60
2023-06-02T08:13:13.972Z,4.00
2023-06-02T08:15:42.441Z,3.40
2023-06-02T08:18:17.691Z,4.20
2023-06-02T08:20:47.464Z,4.50
2023-06-02T08:23:16.071Z,4.40
2023-06-02T08:25:44.890Z,3.90
2023-06-02T08:28:15.290Z,3.80
2023-06-02T08:30:45.454Z,4.30
2023-06-02T08:33:13.726Z,4.20
2023-06-02T08:35:42.349Z,3.90
2023-06-02T08:38:10.597Z,4.00
2023-06-02T08:40:40.943Z,3.80
2023-06-02T08:43:10.568Z,3.90
2023-06-02T08:45:40.941Z,3.80
2023-06-02T08:48:14.756Z,4.30
2023-06-02T08:50:46.686Z,3.50
2023-06-02T08:53:18.010Z,4.40
2023-06-02T08:55:49.631Z,3.80
2023-06-02T08:58:17.741Z,4.30
2023-06-02T09:00:45.842Z,4.40
2023-06-02T09:03:28.407Z,4.00
2023-06-02T09:06:30.330Z,3.80
2023-06-02T09:09:02.337Z,4.00
2023-06-02T09:11:32.259Z,4.30
2023-06-02T09:14:00.767Z,4.50
2023-06-02T09:16:39.986Z,4.20
2023-06-02T09:19:08.207Z,4.10
2023-06-02T09:21:37.034Z,3.80
2023-06-02T09:26:37.652Z,3.70
2023-06-02T09:29:12.310Z,4.60
2023-06-02T09:32:00.102Z,3.80
2023-06-02T09:34:37.113Z,3.60
2023-06-02T09:37:10.699Z,3.50
2023-06-02T09:39:43.449Z,3.50
2023-06-02T09:42:15.667Z,3.60
2023-06-02T09:45:22.685Z,4.00
2023-06-02T09:47:51.431Z,3.70
2023-06-02T09:50:38.020Z,4.30
2023-06-02T09:53:12.523Z,4.10
2023-06-02T09:55:41.574Z,3.90
2023-06-02T09:58:10.010Z,3.90
2023-06-02T10:00:39.334Z,3.90
2023-06-02T10:03:08.553Z,3.80
2023-06-02T10:05:40.573Z,3.80
2023-06-02T10:08:36.601Z,3.60
2023-06-02T10:11:22.899Z,3.20
2023-06-02T10:14:12.406Z,3.40
2023-06-02T10:17:02.585Z,3.40
2023-06-02T10:20:02.767Z,3.50
2023-06-02T10:22:56.415Z,3.40
2023-06-02T10:25:32.519Z,3.10
2023-06-02T10:28:04.710Z,2.90
2023-06-02T10:30:35.953Z,2.70
2023-06-02T10:33:04.615Z,3.00
2023-06-02T10:35:59.837Z,3.60
2023-06-02T10:41:02.080Z,3.10
2023-06-02T10:43:30.661Z,2.30
2023-06-02T10:46:22.832Z,2.40
2023-06-02T10:48:51.201Z,2.40
2023-06-02T10:51:19.559Z,2.80
2023-06-02T10:54:00.294Z,2.70
2023-06-02T10:56:40.350Z,2.20
2023-06-02T10:59:10.093Z,2.40
2023-06-02T11:01:53.427Z,2.40
2023-06-02T11:04:35.622Z,2.80
2023-06-02T11:07:27.946Z,2.10
2023-06-02T11:09:59.429Z,2.60
2023-06-02T11:12:52.896Z,2.30
2023-06-02T11:15:21.955Z,2.20
2023-06-02T11:17:50.429Z,2.20
2023-06-02T11:20:19.735Z,1.90
2023-06-02T11:22:48.229Z,2.00
2023-06-02T11:25:18.369Z,2.50
2023-06-02T11:27:48.494Z,2.10
2023-06-02T11:30:19.293Z,2.20
2023-06-02T11:32:50.631Z,2.20
2023-06-02T11:35:22.217Z,2.20
2023-06-02T11:38:09.564Z,2.30
2023-06-02T11:40:38.614Z,2.20
2023-06-02T11:43:06.926Z,2.60
2023-06-02T11:45:36.408Z,2.60
2023-06-02T11:48:09.308Z,2.70
2023-06-02T11:50:38.566Z,2.60
2023-06-02T11:53:16.308Z,2.40
2023-06-02T11:55:45.069Z,2.40
2023-06-02T11:58:25.322Z,2.20
2023-06-02T12:00:54.627Z,2.50
2023-06-02T12:03:26.514Z,2.30
2023-06-02T12:05:57.221Z,2.40
2023-06-02T12:08:27.249Z,3.00
2023-06-02T12:11:00.843Z,2.90
2023-06-02T12:13:31.482Z,2.60
2023-06-02T12:16:21.829Z,2.70
2023-06-02T12:18:50.410Z,2.70
2023-06-02T12:21:27.662Z,2.90
2023-06-02T12:24:00.199Z,2.50
2023-06-02T12:26:28.575Z,3.00
2023-06-02T12:28:57.907Z,3.00
2023-06-02T12:31:26.121Z,2.80
2023-06-02T12:33:54.318Z,2.80
2023-06-02T12:36:23.378Z,2.80
2023-06-02T12:38:51.592Z,2.80
2023-06-02T12:41:19.754Z,3.10
2023-06-02T12:43:48.608Z,2.70
2023-06-02T12:46:18.371Z,2.80
2023-06-02T12:48:46.759Z,3.10
2023-06-02T12:51:15.234Z,2.70
2023-06-02T12:53:43.834Z,2.90
2023-06-02T12:56:12.639Z,2.90
2023-06-02T12:58:41.558Z,3.30
2023-06-02T13:01:09.876Z,3.30
2023-06-02T13:03:38.231Z,3.20
2023-06-02T13:06:10.174Z,3.20
2023-06-02T13:08:42.067Z,3.30
2023-06-02T13:11:11.196Z,4.00
2023-06-02T13:13:39.997Z,4.00
2023-06-02T13:16:08.970Z,4.20
2023-06-02T13:18:37.526Z,4.20
2023-06-02T13:21:05.792Z,4.10
2023-06-02T13:23:35.882Z,3.80
2023-06-02T13:26:04.723Z,3.90
2023-06-02T13:28:34.262Z,3.70
2023-06-02T13:31:03.568Z,4.00
2023-06-02T13:33:31.951Z,3.70
2023-06-02T13:36:00.079Z,3.40
2023-06-02T13:38:28.229Z,3.70
2023-06-02T13:40:59.314Z,4.00
2023-06-02T13:43:27.966Z,3.70
2023-06-02T13:45:56.559Z,4.20
2023-06-02T13:48:24.748Z,3.40
2023-06-02T13:50:53.094Z,3.20
2023-06-02T13:53:21.276Z,3.00
2023-06-02T13:55:49.295Z,3.50
2023-06-02T13:58:17.528Z,3.50
2023-06-02T14:00:47.344Z,3.80
2023-06-02T14:03:16.069Z,3.40
2023-06-02T14:05:47.785Z,3.70
2023-06-02T14:08:18.771Z,3.40
2023-06-02T14:10:47.256Z,3.20
2023-06-02T14:13:15.466Z,3.30
2023-06-02T14:15:43.862Z,3.50
2023-06-02T14:18:12.068Z,2.70
2023-06-02T14:20:40.183Z,3.40
2023-06-02T14:23:08.352Z,3.00
2023-06-02T14:25:36.442Z,3.20
2023-06-02T14:28:04.626Z,3.50
2023-06-02T14:30:32.837Z,3.30
2023-06-02T14:33:01.306Z,3.40
2023-06-02T14:35:29.697Z,3.40
2023-06-02T14:37:58.012Z,3.10
2023-06-02T14:40:26.195Z,3.20
2023-06-02T14:42:54.726Z,3.90
2023-06-02T14:45:22.964Z,3.50
2023-06-02T14:47:51.069Z,3.00
2023-06-02T14:50:19.066Z,3.10
2023-06-02T14:52:47.374Z,3.20
2023-06-02T14:55:15.833Z,3.30
2023-06-02T14:57:44.202Z,3.40
2023-06-02T15:00:12.883Z,3.30
2023-06-02T15:02:41.131Z,3.50
2023-06-02T15:05:09.694Z,3.00
2023-06-02T15:07:37.997Z,2.90
2023-06-02T15:10:06.895Z,3.30
2023-06-02T15:12:34.933Z,3.30
2023-06-02T15:15:03.299Z,3.30
2023-06-02T15:17:31.628Z,3.40
2023-06-02T15:19:59.737Z,3.60
2023-06-02T15:22:28.800Z,3.10
2023-06-02T15:24:58.083Z,3.70
2023-06-02T15:27:26.343Z,3.10
2023-06-02T15:29:54.538Z,3.20
2023-06-02T15:32:22.549Z,3.40
2023-06-02T15:34:50.670Z,3.20
2023-06-02T15:37:19.148Z,3.30
2023-06-02T15:39:47.310Z,3.00
2023-06-02T15:42:15.414Z,3.30
2023-06-02T15:44:43.677Z,3.30
2023-06-02T15:47:11.754Z,2.90
2023-06-02T15:49:39.796Z,3.00
2023-06-02T15:52:07.996Z,3.00
2023-06-02T15:54:36.124Z,3.40
2023-06-02T15:57:05.050Z,2.90
2023-06-02T15:59:33.112Z,3.20
2023-06-02T16:02:01.660Z,3.50
2023-06-02T16:04:30.060Z,3.10
2023-06-02T16:06:58.687Z,3.70
2023-06-02T16:09:26.906Z,3.20
2023-06-02T16:11:54.926Z,3.20
2023-06-02T16:14:23.216Z,3.30
2023-06-02T16:16:51.279Z,3.80
2023-06-02T16:19:20.340Z,3.90
2023-06-02T16:21:49.642Z,3.80
2023-06-02T16:24:17.918Z,3.50
2023-06-02T16:26:46.049Z,3.40
2023-06-02T16:29:14.320Z,4.60
2023-06-02T16:31:42.472Z,6.00
2023-06-02T16:34:10.492Z,5.80
2023-06-02T16:36:38.728Z,4.20
2023-06-02T16:39:10.882Z,4.00
2023-06-02T16:41:41.316Z,3.80
2023-06-02T16:44:09.564Z,3.50
2023-06-02T16:46:37.777Z,3.30
2023-06-02T16:49:09.012Z,3.10
2023-06-02T16:51:38.076Z,2.90
2023-06-02T16:54:06.667Z,2.60
2023-06-02T16:56:34.773Z,2.80
2023-06-02T16:59:03.468Z,2.70
2023-06-02T17:01:33.381Z,2.40
2023-06-02T17:04:01.652Z,2.70
2023-06-02T17:06:29.829Z,2.80
2023-06-02T17:09:00.943Z,2.80
2023-06-02T17:11:32.400Z,2.80
2023-06-02T17:14:01.480Z,2.80
2023-06-02T17:16:29.870Z,2.80
2023-06-02T17:18:58.975Z,2.60
2023-06-02T17:21:27.813Z,3.20
2023-06-02T17:23:56.354Z,3.00
2023-06-02T17:26:24.870Z,3.20
2023-06-02T17:28:53.081Z,3.60
2023-06-02T17:31:22.538Z,3.20
2023-06-02T17:33:50.726Z,2.80
2023-06-02T17:36:18.834Z,2.60
2023-06-02T17:38:46.986Z,3.20
2023-06-02T17:41:17.375Z,3.20
2023-06-02T17:43:47.175Z,2.80
2023-06-02T17:46:15.464Z,2.90
2023-06-02T17:48:47.109Z,2.90
2023-06-02T17:51:16.418Z,2.80
2023-06-02T17:53:44.647Z,3.10
2023-06-02T17:56:12.927Z,3.20
2023-06-02T17:58:41.647Z,3.00
2023-06-02T18:01:11.388Z,2.80
2023-06-02T18:03:40.046Z,3.30
2023-06-02T18:06:08.545Z,3.60
2023-06-02T18:08:37.420Z,2.80
2023-06-02T18:11:05.940Z,3.30
2023-06-02T18:13:34.744Z,3.00
2023-06-02T18:16:02.925Z,3.00
2023-06-02T18:18:31.192Z,3.00
2023-06-02T18:20:59.517Z,3.40
2023-06-02T18:23:28.225Z,3.30
2023-06-02T18:25:58.373Z,3.90
2023-06-02T18:28:26.453Z,3.10
2023-06-02T18:30:54.615Z,3.60
2023-06-02T18:33:22.627Z,3.20
2023-06-02T18:35:50.745Z,3.60
2023-06-02T18:38:18.885Z,3.90
2023-06-02T18:40:47.042Z,3.60
2023-06-02T18:43:15.229Z,3.50
2023-06-02T18:45:43.600Z,4.10
2023-06-02T18:48:12.630Z,3.30
2023-06-02T18:50:41.531Z,3.30
2023-06-02T18:53:11.627Z,3.00
2023-06-02T18:55:39.680Z,3.60
2023-06-02T18:58:08.580Z,3.60
2023-06-02T19:00:37.524Z,3.40
2023-06-02T19:03:06.912Z,4.20
2023-06-02T19:05:36.342Z,3.30
2023-06-02T19:08:05.145Z,3.60
2023-06-02T19:10:33.641Z,3.50
2023-06-02T19:13:01.995Z,3.30
2023-06-02T19:15:30.846Z,3.20
2023-06-02T19:17:59.256Z,3.40
2023-06-02T19:20:28.239Z,3.90
2023-06-02T19:22:58.268Z,4.00
2023-06-02T19:25:26.818Z,3.70
2023-06-02T19:27:55.073Z,3.70
2023-06-02T19:30:23.774Z,3.60
2023-06-02T19:32:54.223Z,3.50
2023-06-02T19:35:24.525Z,4.20
2023-06-02T19:37:53.209Z,3.50
2023-06-02T19:40:21.851Z,4.00
2023-06-02T19:42:50.199Z,3.60
2023-06-02T19:45:18.371Z,3.30
2023-06-02T19:47:46.627Z,4.00
2023-06-02T19:50:16.160Z,3.70
2023-06-02T19:52:44.437Z,4.10
2023-06-02T19:55:12.822Z,3.60
2023-06-02T19:57:41.644Z,3.80
2023-06-02T20:00:12.003Z,4.00
2023-06-02T20:02:42.123Z,3.60
2023-06-02T20:05:13.581Z,3.50
2023-06-02T20:07:42.978Z,3.80
2023-06-02T20:10:12.439Z,4.10
2023-06-02T20:12:40.728Z,4.00
2023-06-02T20:15:09.781Z,4.00
2023-06-02T20:17:38.304Z,3.90
2023-06-02T20:20:07.195Z,3.50
2023-06-02T20:22:35.912Z,4.10
2023-06-02T20:25:05.231Z,3.80
2023-06-02T20:27:33.581Z,3.60
2023-06-02T20:30:02.173Z,4.00
2023-06-02T20:32:31.105Z,4.00
2023-06-02T20:35:00.062Z,3.70
2023-06-02T20:37:28.190Z,3.80
2023-06-02T20:39:56.418Z,4.50
2023-06-02T20:42:24.706Z,4.20
2023-06-02T20:44:53.301Z,3.60
2023-06-02T20:47:21.847Z,4.10
2023-06-02T20:49:50.089Z,4.00
2023-06-02T20:52:18.709Z,4.00
2023-06-02T20:54:47.185Z,4.40
2023-06-02T20:57:15.936Z,4.30
2023-06-02T20:59:44.142Z,3.80
2023-06-02T21:02:12.648Z,4.60
2023-06-02T21:04:43.575Z,4.20
2023-06-02T21:07:11.708Z,4.10
2023-06-02T21:09:40.193Z,4.00
2023-06-02T21:12:09.603Z,4.30
2023-06-02T21:14:37.909Z,4.80
2023-06-02T21:17:06.779Z,4.40
2023-06-02T21:19:34.968Z,4.70
2023-06-02T21:22:04.093Z,4.40
2023-06-02T21:24:32.134Z,4.20
2023-06-02T21:27:00.309Z,4.30
2023-06-02T21:29:28.465Z,4.90
2023-06-02T21:31:56.640Z,4.70
2023-06-02T21:34:24.752Z,4.70
2023-06-02T21:36:52.844Z,5.30
2023-06-02T21:39:21.184Z,5.30
2023-06-02T21:41:49.273Z,5.00
2023-06-02T21:44:17.770Z,5.30
2023-06-02T21:46:46.060Z,5.30
2023-06-02T21:49:14.721Z,4.70
2023-06-02T21:51:43.221Z,4.40
2023-06-02T21:54:11.281Z,4.40
2023-06-02T21:56:39.442Z,4.80
2023-06-02T21:59:07.650Z,4.90
2023-06-02T22:01:36.519Z,5.00
2023-06-02T22:04:04.963Z,5.10
2023-06-02T22:06:33.199Z,4.60
2023-06-02T22:09:01.706Z,4.80
2023-06-02T22:11:30.123Z,5.00
2023-06-02T22:13:58.361Z,5.20
2023-06-02T22:16:26.936Z,5.40
2023-06-02T22:18:55.145Z,4.60
2023-06-02T22:21:41.692Z,5.40
2023-06-02T22:24:26.260Z,5.30
2023-06-02T22:26:57.277Z,5.00
2023-06-02T22:29:25.414Z,5.30
2023-06-02T22:31:53.748Z,5.00
2023-06-02T22:34:22.591Z,5.20
2023-06-02T22:36:51.824Z,5.10
2023-06-02T22:39:20.280Z,5.30
2023-06-02T22:41:50.194Z,4.80
2023-06-02T22:44:18.610Z,5.10
2023-06-02T22:46:46.907Z,4.70
2023-06-02T22:49:14.910Z,4.80
2023-06-02T22:51:43.365Z,4.90
2023-06-02T22:54:11.488Z,4.70
2023-06-02T22:56:39.712Z,4.60
2023-06-02T22:59:07.875Z,4.70
2023-06-02T23:01:35.992Z,4.40
2023-06-02T23:04:04.237Z,5.10
2023-06-02T23:06:32.337Z,4.60
2023-06-02T23:09:00.800Z,5.00
2023-06-02T23:11:28.969Z,4.80
2023-06-02T23:13:57.137Z,4.50
2023-06-02T23:16:25.713Z,4.60
2023-06-02T23:18:53.763Z,4.70
2023-06-02T23:21:21.788Z,5.00
2023-06-02T23:23:51.742Z,5.00
2023-06-02T23:26:20.477Z,4.80
2023-06-02T23:28:48.761Z,5.10
2023-06-02T23:31:17.059Z,4.90
2023-06-02T23:33:45.531Z,4.80
2023-06-02T23:36:14.415Z,4.10
2023-06-02T23:38:42.688Z,4.90
2023-06-02T23:41:11.699Z,5.00
2023-06-02T23:43:40.087Z,4.00
2023-06-02T23:46:08.541Z,4.50
2023-06-02T23:48:37.363Z,4.80
2023-06-02T23:51:09.730Z,4.30
2023-06-02T23:53:38.239Z,4.80
2023-06-02T23:56:08.993Z,4.70
2023-06-02T23:58:37.443Z,4.40
